createdAt,value
2022-08-07T00:00:55.251Z,101022.89
2022-08-07T00:03:50.231Z,101018.13
2022-08-07T00:06:51.929Z,101017.36
2022-08-07T00:09:50.196Z,101017.58
2022-08-07T00:13:00.748Z,101020.77
2022-08-07T00:15:53.994Z,101023.25
2022-08-07T00:18:45.610Z,101021.38
2022-08-07T00:21:57.362Z,101017.14
2022-08-07T00:24:47.404Z,101007.55
2022-08-07T00:27:53.774Z,101010.64
2022-08-07T00:30:47.256Z,101014.29
2022-08-07T00:33:38.869Z,101017.36
2022-08-07T00:36:33.011Z,101009.86
2022-08-07T00:39:23.997Z,101009.76
2022-08-07T00:42:14.416Z,101006.72
2022-08-07T00:45:16.089Z,100999.88
2022-08-07T00:48:10.412Z,101004.56
2022-08-07T00:51:02.936Z,101011.09
2022-08-07T00:53:55.359Z,101006.94
2022-08-07T00:56:47.341Z,101001.13
2022-08-07T00:59:41.622Z,100995.02
2022-08-07T01:02:31.994Z,101002.41
2022-08-07T01:05:24.728Z,100997.98
2022-08-07T01:08:17.215Z,101003.06
2022-08-07T01:12:04.266Z,101004.61
2022-08-07T01:14:28.786Z,101002.23
2022-08-07T01:17:20.559Z,101005.11
2022-08-07T01:20:16.673Z,101006.38
2022-08-07T01:23:12.226Z,101007.76
2022-08-07T01:26:07.158Z,101011.77
2022-08-07T01:29:09.197Z,101007.73
2022-08-07T01:32:00.974Z,100999.59
2022-08-07T01:34:57.421Z,101000.89
2022-08-07T01:37:48.666Z,101003.30
2022-08-07T01:40:41.875Z,101000.41
2022-08-07T01:43:34.650Z,101000.03
2022-08-07T01:46:31.288Z,101000.80
2022-08-07T01:49:22.353Z,101003.44
2022-08-07T01:52:15.375Z,101009.05
2022-08-07T01:55:08.507Z,101007.88
2022-08-07T01:58:27.151Z,101003.17
2022-08-07T02:01:58.829Z,101001.09
2022-08-07T02:04:55.895Z,101008.95
2022-08-07T02:07:53.815Z,101016.63
2022-08-07T02:10:58.691Z,101010.62
2022-08-07T02:13:57.551Z,101016.16
2022-08-07T02:16:53.036Z,101020.59
2022-08-07T02:20:05.280Z,101024.00
2022-08-07T02:23:01.903Z,101023.29
2022-08-07T02:26:32.023Z,101014.48
2022-08-07T02:29:13.685Z,101020.59
2022-08-07T02:32:10.854Z,101025.53
2022-08-07T02:35:06.152Z,101034.98
2022-08-07T02:38:04.225Z,101030.48
2022-08-07T02:40:56.342Z,101033.13
2022-08-07T02:43:49.113Z,101028.30
2022-08-07T02:46:46.672Z,101036.25
2022-08-07T02:49:58.549Z,101032.97
2022-08-07T02:53:00.881Z,101044.30
2022-08-07T02:56:04.136Z,101048.85
2022-08-07T02:59:01.955Z,101065.90
2022-08-07T03:01:55.379Z,101064.05
2022-08-07T03:04:48.607Z,101065.92
2022-08-07T03:07:58.840Z,101076.92
2022-08-07T03:10:54.381Z,101077.02
2022-08-07T03:13:57.685Z,101081.48
2022-08-07T03:16:53.368Z,101085.32
2022-08-07T03:19:45.098Z,101084.23
2022-08-07T03:22:50.212Z,101086.16
2022-08-07T03:25:44.276Z,101080.64
2022-08-07T03:28:43.461Z,101079.88
2022-08-07T03:31:43.200Z,101086.15
2022-08-07T03:34:39.341Z,101089.96
2022-08-07T03:37:32.557Z,101099.63
2022-08-07T03:40:35.961Z,101097.11
2022-08-07T03:43:32.915Z,101105.07
2022-08-07T03:46:25.059Z,101099.06
2022-08-07T03:49:18.331Z,101097.45
2022-08-07T03:52:15.939Z,101095.91
2022-08-07T03:55:19.351Z,101094.92
2022-08-07T03:59:04.903Z,101086.83
2022-08-07T04:01:22.950Z,101085.10
2022-08-07T04:04:17.427Z,101085.25
2022-08-07T04:07:17.555Z,101087.98
2022-08-07T04:10:15.503Z,101089.54
2022-08-07T04:13:08.113Z,101085.91
2022-08-07T04:16:06.751Z,101085.08
2022-08-07T04:19:14.725Z,101076.80
2022-08-07T04:22:14.435Z,101074.37
2022-08-07T04:25:08.688Z,101081.62
2022-08-07T04:28:06.591Z,101089.20
2022-08-07T04:30:58.632Z,101086.71
2022-08-07T04:33:56.654Z,101086.24
2022-08-07T04:36:49.609Z,101086.99
2022-08-07T04:39:47.890Z,101083.79
2022-08-07T04:42:43.722Z,101081.94
2022-08-07T04:45:57.609Z,101079.82
2022-08-07T04:49:02.140Z,101078.71
2022-08-07T04:52:06.746Z,101076.80
2022-08-07T04:55:14.954Z,101075.70
2022-08-07T04:58:49.700Z,101075.20
2022-08-07T05:01:44.267Z,101088.94
2022-08-07T05:04:47.221Z,101095.23
2022-08-07T05:07:48.526Z,101095.42
2022-08-07T05:10:46.680Z,101099.77
2022-08-07T05:14:54.374Z,101100.12
2022-08-07T05:17:00.370Z,101101.59
2022-08-07T05:19:54.507Z,101104.89
2022-08-07T05:22:49.346Z,101104.02
2022-08-07T05:26:13.221Z,101114.59
2022-08-07T05:29:00.266Z,101116.75
2022-08-07T05:32:00.961Z,101122.38
2022-08-07T05:34:58.472Z,101121.27
2022-08-07T05:38:09.116Z,101112.88
2022-08-07T05:41:01.866Z,101106.16
2022-08-07T05:44:12.212Z,101102.38
2022-08-07T05:47:18.263Z,101106.88
2022-08-07T05:50:16.315Z,101100.23
2022-08-07T05:53:07.265Z,101099.96
2022-08-07T05:56:20.411Z,101100.97
2022-08-07T05:59:22.794Z,101100.81
2022-08-07T06:02:28.922Z,101098.83
2022-08-07T06:05:26.001Z,101099.63
2022-08-07T06:08:30.123Z,101104.20
2022-08-07T06:11:22.527Z,101104.98
2022-08-07T06:14:20.864Z,101103.73
2022-08-07T06:17:15.865Z,101102.19
2022-08-07T06:20:12.735Z,101092.01
2022-08-07T06:23:45.931Z,101089.77
2022-08-07T06:26:30.250Z,101096.06
2022-08-07T06:29:21.534Z,101097.06
2022-08-07T06:32:14.974Z,101101.84
2022-08-07T06:35:17.795Z,101096.10
2022-08-07T06:38:10.180Z,101092.91
2022-08-07T06:41:14.021Z,101093.75
2022-08-07T06:44:10.854Z,101092.09
2022-08-07T06:47:10.588Z,101086.92
2022-08-07T06:50:06.666Z,101090.25
2022-08-07T06:53:04.112Z,101092.07
2022-08-07T06:56:01.989Z,101083.67
2022-08-07T07:00:14.656Z,101084.30
2022-08-07T07:02:48.086Z,101084.92
2022-08-07T07:06:03.307Z,101084.52
2022-08-07T07:08:46.731Z,101082.40
2022-08-07T07:12:07.442Z,101078.88
2022-08-07T07:14:57.649Z,101074.60
2022-08-07T07:17:54.457Z,101071.20
2022-08-07T07:20:54.851Z,101069.63
2022-08-07T07:24:10.219Z,101070.24
2022-08-07T07:26:58.172Z,101070.30
2022-08-07T07:30:08.772Z,101068.13
2022-08-07T07:33:02.455Z,101066.86
2022-08-07T07:36:05.398Z,101068.02
2022-08-07T07:39:04.395Z,101066.12
2022-08-07T07:42:13.300Z,101062.15
2022-08-07T07:45:08.735Z,101059.05
2022-08-07T07:48:04.057Z,101052.52
2022-08-07T07:50:56.311Z,101054.10
2022-08-07T07:53:52.222Z,101049.67
2022-08-07T07:56:45.068Z,101045.14
2022-08-07T07:59:52.498Z,101048.45
2022-08-07T08:03:00.925Z,101042.70
2022-08-07T08:05:56.176Z,101040.34
2022-08-07T08:08:48.308Z,101041.70
2022-08-07T08:12:00.102Z,101036.85
2022-08-07T08:14:49.502Z,101037.39
2022-08-07T08:17:57.990Z,101037.59
2022-08-07T08:20:51.094Z,101037.17
2022-08-07T08:24:01.815Z,101041.42
2022-08-07T08:27:09.509Z,101037.83
2022-08-07T08:30:03.915Z,101037.84
2022-08-07T08:32:58.676Z,101041.09
2022-08-07T08:35:52.615Z,101042.42
2022-08-07T08:38:46.826Z,101043.52
2022-08-07T08:41:58.484Z,101041.11
2022-08-07T08:44:55.851Z,101039.94
2022-08-07T08:47:58.304Z,101041.15
2022-08-07T08:50:58.158Z,101037.20
2022-08-07T08:54:02.452Z,101037.09
2022-08-07T08:56:54.684Z,101036.33
2022-08-07T08:59:53.634Z,101032.58
2022-08-07T09:02:53.979Z,101028.90
2022-08-07T09:05:54.578Z,101028.98
2022-08-07T09:08:58.104Z,101029.02
2022-08-07T09:12:08.963Z,101027.02
2022-08-07T09:16:24.457Z,101030.91
2022-08-07T09:18:58.578Z,101023.35
2022-08-07T09:22:22.424Z,101023.29
2022-08-07T09:25:17.832Z,101019.33
2022-08-07T09:30:00.606Z,101021.86
2022-08-07T09:31:27.475Z,101017.35
2022-08-07T09:34:38.495Z,101014.03
2022-08-07T09:37:53.512Z,101011.65
2022-08-07T09:41:00.384Z,101012.81
2022-08-07T09:44:06.749Z,101013.84
2022-08-07T09:47:42.629Z,101005.85
2022-08-07T09:50:32.088Z,101008.39
2022-08-07T09:53:26.089Z,101006.67
2022-08-07T09:57:00.740Z,101011.02
2022-08-07T10:00:14.422Z,101005.15
2022-08-07T10:04:04.752Z,101006.31
2022-08-07T10:07:39.854Z,101001.40
2022-08-07T10:11:07.796Z,100989.79
2022-08-07T10:14:02.539Z,101002.66
2022-08-07T10:17:14.375Z,100996.52
2022-08-07T10:20:30.522Z,100996.56
2022-08-07T10:24:06.227Z,100998.16
2022-08-07T10:27:12.992Z,100995.63
2022-08-07T10:30:12.351Z,100987.75
2022-08-07T10:34:05.707Z,100982.52
2022-08-07T10:36:53.230Z,100986.15
2022-08-07T10:40:05.627Z,100978.73
2022-08-07T10:43:08.907Z,100974.42
2022-08-07T10:46:03.279Z,100966.52
2022-08-07T10:49:04.688Z,100965.32
2022-08-07T10:52:12.934Z,100966.20
2022-08-07T10:55:26.937Z,100962.01
2022-08-07T10:58:47.656Z,100956.38
2022-08-07T11:02:05.448Z,100953.44
2022-08-07T11:05:49.283Z,100954.09
2022-08-07T11:08:45.255Z,100951.61
2022-08-07T11:11:41.900Z,100952.02
2022-08-07T11:14:45.853Z,100946.26
2022-08-07T11:17:54.162Z,100944.98
2022-08-07T11:20:51.315Z,100938.40
2022-08-07T11:23:54.516Z,100943.02
2022-08-07T11:26:50.416Z,100940.94
2022-08-07T11:29:53.891Z,100934.58
2022-08-07T11:33:07.932Z,100940.69
2022-08-07T11:36:25.266Z,100937.47
2022-08-07T11:39:58.834Z,100931.80
2022-08-07T11:42:59.849Z,100928.18
2022-08-07T11:46:23.408Z,100932.12
2022-08-07T11:50:18.730Z,100926.48
2022-08-07T11:53:15.726Z,100921.67
2022-08-07T11:56:29.723Z,100917.53
2022-08-07T12:00:11.550Z,100917.45
2022-08-07T12:03:44.998Z,100911.04
2022-08-07T12:06:56.324Z,100905.25
2022-08-07T12:09:58.495Z,100902.25
2022-08-07T12:13:00.989Z,100898.63
2022-08-07T12:16:07.034Z,100889.33
2022-08-07T12:19:14.660Z,100884.77
2022-08-07T12:22:37.239Z,100876.04
2022-08-07T12:26:21.931Z,100875.98
2022-08-07T12:29:13.908Z,100876.40
2022-08-07T12:32:13.297Z,100883.48
2022-08-07T12:35:07.373Z,100874.27
2022-08-07T12:38:09.313Z,100870.50
2022-08-07T12:41:04.082Z,100862.48
2022-08-07T12:44:05.621Z,100862.13
2022-08-07T12:47:21.502Z,100863.05
2022-08-07T12:50:33.994Z,100860.95
2022-08-07T12:54:23.999Z,100853.95
2022-08-07T12:56:50.952Z,100849.92
2022-08-07T12:59:54.354Z,100847.99
2022-08-07T13:03:06.812Z,100860.89
2022-08-07T13:06:16.888Z,100865.96
2022-08-07T13:10:19.879Z,100859.91
2022-08-07T13:12:39.111Z,100862.42
2022-08-07T13:15:38.633Z,100861.21
2022-08-07T13:18:44.648Z,100858.58
2022-08-07T13:21:54.997Z,100855.51
2022-08-07T13:24:59.158Z,100867.38
2022-08-07T13:28:11.617Z,100868.47
2022-08-07T13:31:14.129Z,100866.36
2022-08-07T13:34:33.089Z,100868.14
2022-08-07T13:37:33.725Z,100879.09
2022-08-07T13:40:41.708Z,100879.96
2022-08-07T13:43:36.900Z,100877.42
2022-08-07T13:46:36.553Z,100870.97
2022-08-07T13:50:33.595Z,100870.25
2022-08-07T13:52:47.152Z,100869.45
2022-08-07T13:55:40.301Z,100868.36
2022-08-07T13:59:05.811Z,100864.52
2022-08-07T14:02:10.232Z,100861.92
2022-08-07T14:05:05.591Z,100856.55
2022-08-07T14:08:01.476Z,100850.41
2022-08-07T14:11:01.759Z,100843.72
2022-08-07T14:14:10.468Z,100832.66
2022-08-07T14:17:32.133Z,100821.70
2022-08-07T14:20:40.817Z,100815.35
2022-08-07T14:24:00.335Z,100805.53
2022-08-07T14:26:53.531Z,100806.98
2022-08-07T14:30:07.836Z,100812.77
2022-08-07T14:33:04.666Z,100811.63
2022-08-07T14:35:59.991Z,100817.36
2022-08-07T14:38:55.892Z,100821.03
2022-08-07T14:42:20.069Z,100833.30
2022-08-07T14:45:21.584Z,100837.19
2022-08-07T14:52:03.778Z,100828.43
2022-08-07T14:54:44.113Z,100837.48
2022-08-07T14:57:54.834Z,100851.52
2022-08-07T15:00:54.289Z,100859.36
2022-08-07T15:03:51.488Z,100861.55
2022-08-07T15:06:47.607Z,100861.69
2022-08-07T15:09:58.408Z,100867.27
2022-08-07T15:12:54.937Z,100869.46
2022-08-07T15:15:53.701Z,100863.25
2022-08-07T15:18:47.596Z,100858.27
2022-08-07T15:22:04.178Z,100863.55
2022-08-07T15:34:50.548Z,100885.51
2022-08-07T15:38:18.287Z,100893.31
2022-08-07T15:41:23.027Z,100892.13
2022-08-07T15:44:11.495Z,100888.28
2022-08-07T15:47:08.640Z,100874.48
2022-08-07T15:50:04.019Z,100866.98
2022-08-07T15:53:04.935Z,100860.77
2022-08-07T15:56:02.944Z,100859.61
2022-08-07T15:59:00.858Z,100868.52
2022-08-07T16:02:02.086Z,100878.02
2022-08-07T16:05:00.953Z,100880.12
2022-08-07T16:08:33.393Z,100873.89
2022-08-07T16:11:27.013Z,100864.86
2022-08-07T16:14:30.149Z,100860.40
2022-08-07T16:18:01.889Z,100862.06
2022-08-07T16:21:56.838Z,100861.41
2022-08-07T16:24:34.603Z,100851.41
2022-08-07T16:27:40.033Z,100854.73
2022-08-07T16:30:36.472Z,100850.30
2022-08-07T16:34:02.679Z,100850.33
2022-08-07T16:38:06.500Z,100846.64
2022-08-07T16:40:35.871Z,100842.30
2022-08-07T16:44:03.930Z,100833.17
2022-08-07T16:51:13.445Z,100809.69
2022-08-07T16:54:34.536Z,100814.92
2022-08-07T16:58:01.912Z,100823.61
2022-08-07T17:01:15.958Z,100841.79
2022-08-07T17:04:14.948Z,100861.89
2022-08-07T17:07:28.419Z,100878.12
2022-08-07T17:10:54.534Z,100887.07
2022-08-07T17:14:18.033Z,100886.59
2022-08-07T17:17:21.556Z,100889.77
2022-08-07T17:20:21.678Z,100896.09
2022-08-07T17:23:41.863Z,100894.36
2022-08-07T17:26:48.236Z,100910.20
2022-08-07T17:30:15.686Z,100908.27
2022-08-07T17:34:08.524Z,100903.46
2022-08-07T17:36:32.415Z,100907.73
2022-08-07T17:39:53.188Z,100915.08
2022-08-07T17:43:02.295Z,100925.41
2022-08-07T17:46:20.998Z,100947.33
2022-08-07T17:49:30.076Z,100944.41
2022-08-07T17:52:32.437Z,100945.70
2022-08-07T17:55:54.778Z,100952.63
2022-08-07T17:58:51.428Z,100962.96
2022-08-07T18:01:48.988Z,100958.42
2022-08-07T18:04:50.316Z,100975.59
2022-08-07T18:07:46.856Z,100975.80
2022-08-07T18:12:08.248Z,100988.10
2022-08-07T18:14:06.567Z,101007.52
2022-08-07T18:17:00.692Z,100996.98
2022-08-07T18:21:08.362Z,101000.02
2022-08-07T18:23:41.990Z,100981.84
2022-08-07T18:26:49.536Z,100971.63
2022-08-07T18:30:06.129Z,100971.22
2022-08-07T18:33:35.921Z,100977.63
2022-08-07T18:36:39.897Z,100993.79
2022-08-07T18:40:06.374Z,101002.79
2022-08-07T18:43:08.245Z,100997.30
2022-08-07T18:46:22.365Z,101004.89
2022-08-07T18:50:31.268Z,101018.25
2022-08-07T18:53:02.976Z,100992.95
2022-08-07T18:56:09.484Z,100988.20
2022-08-07T18:59:47.782Z,100986.52
2022-08-07T19:02:42.687Z,100989.02
2022-08-07T19:06:03.630Z,100999.27
2022-08-07T19:09:08.971Z,101015.45
2022-08-07T19:12:18.879Z,101027.23
2022-08-07T19:16:03.272Z,101049.27
2022-08-07T19:18:45.205Z,101076.89
2022-08-07T19:21:53.593Z,101079.28
2022-08-07T19:24:50.647Z,101078.25
2022-08-07T19:28:30.911Z,101070.34
2022-08-07T19:33:59.442Z,101083.55
2022-08-07T19:36:53.493Z,101080.14
2022-08-07T19:39:56.860Z,101089.63
2022-08-07T19:42:50.250Z,101096.83
2022-08-07T19:46:05.587Z,101094.16
2022-08-07T19:49:01.608Z,101074.48
2022-08-07T19:52:00.687Z,101069.80
2022-08-07T19:54:56.548Z,101046.70
2022-08-07T19:58:04.746Z,101034.54
2022-08-07T20:01:04.093Z,100999.03
2022-08-07T20:04:01.506Z,100974.92
2022-08-07T20:06:54.320Z,100967.27
2022-08-07T20:10:35.617Z,100977.47
2022-08-07T20:13:06.172Z,100996.15
2022-08-07T20:15:58.391Z,101001.05
2022-08-07T20:18:50.819Z,101002.66
2022-08-07T20:21:48.081Z,101009.27
2022-08-07T20:24:39.591Z,101003.58
2022-08-07T20:27:46.016Z,101013.77
2022-08-07T20:30:39.684Z,101021.26
2022-08-07T20:33:38.598Z,101015.66
2022-08-07T20:36:31.896Z,101019.02
2022-08-07T20:40:01.245Z,101018.95
2022-08-07T20:42:39.944Z,101022.69
2022-08-07T20:46:28.046Z,101023.70
2022-08-07T20:49:55.100Z,101016.62
2022-08-07T20:51:56.869Z,101009.42
2022-08-07T20:54:53.333Z,101014.08
2022-08-07T20:58:02.510Z,101012.98
2022-08-07T21:01:02.297Z,101005.80
2022-08-07T21:04:19.776Z,101003.33
2022-08-07T21:07:14.522Z,101011.01
2022-08-07T21:10:25.171Z,101012.46
2022-08-07T21:13:24.535Z,101017.91
2022-08-07T21:16:37.763Z,101018.72
2022-08-07T21:19:51.390Z,101015.56
2022-08-07T21:22:55.724Z,101019.91
2022-08-07T21:26:01.480Z,101024.20
2022-08-07T21:29:00.664Z,101024.93
2022-08-07T21:32:46.684Z,101021.95
2022-08-07T21:35:34.671Z,101022.31
2022-08-07T21:38:38.976Z,101019.77
2022-08-07T21:42:00.750Z,101026.53
2022-08-07T21:44:58.876Z,101030.00
2022-08-07T21:47:59.886Z,101027.91
2022-08-07T21:50:56.292Z,101022.36
2022-08-07T21:53:53.718Z,101020.84
2022-08-07T21:57:03.271Z,101031.11
2022-08-07T22:00:04.811Z,101037.23
2022-08-07T22:03:08.420Z,101037.52
2022-08-07T22:06:07.842Z,101037.57
2022-08-07T22:09:25.816Z,101040.83
2022-08-07T22:12:24.663Z,101050.13
2022-08-07T22:16:35.807Z,101059.37
2022-08-07T22:18:34.946Z,101061.66
2022-08-07T22:22:01.887Z,101062.42
2022-08-07T22:24:54.336Z,101067.36
2022-08-07T22:28:19.855Z,101074.69
2022-08-07T22:31:08.186Z,101085.80
2022-08-07T22:34:06.023Z,101092.09
2022-08-07T22:37:12.696Z,101088.63
2022-08-07T22:40:12.454Z,101089.55
2022-08-07T22:43:09.045Z,101089.23
2022-08-07T22:47:02.301Z,101093.01
2022-08-07T22:50:05.091Z,101097.23
2022-08-07T22:54:08.170Z,101087.54
2022-08-07T22:57:00.718Z,101077.11
2022-08-07T22:59:58.005Z,101081.33
2022-08-07T23:03:06.173Z,101071.09
2022-08-07T23:06:16.765Z,101070.21
2022-08-07T23:10:04.474Z,101066.36
2022-08-07T23:12:54.721Z,101065.39
2022-08-07T23:16:07.028Z,101056.71
2022-08-07T23:19:38.846Z,101053.04
2022-08-07T23:22:47.466Z,101064.59
2022-08-07T23:25:52.376Z,101051.64
2022-08-07T23:29:43.632Z,101056.44
2022-08-07T23:34:36.091Z,101060.00
2022-08-07T23:36:29.728Z,101051.27
2022-08-07T23:39:28.044Z,101045.94
2022-08-07T23:42:34.277Z,101049.56
2022-08-07T23:46:02.009Z,101047.48
2022-08-07T23:49:03.370Z,101055.51
2022-08-07T23:53:00.817Z,101055.60
2022-08-07T23:55:53.349Z,101052.67
2022-08-07T23:58:40.111Z,101049.20
